Time;durP1;ratioP1;P1;durP2;ratioP2;P2;SDS_P1;SDS_P2;PMS_P1;PMS_P2;Temp;Humidity;BMP_temperature;BMP_pressure;BME280_temperature;BME280_humidity;BME280_pressure;Samples;Min_cycle;Max_cycle;Signal;HPM_P1;HPM_P2
2022/03/17 00:00:25;;;;;;;20.07;15.57;;;;;;;13.80;54.46;99583.75;4141772;28;20690;-62
2022/03/17 00:02:27;;;;;;;19.90;16.23;;;;;;;13.78;54.31;99569.75;4140801;28;20324;-61
2022/03/17 00:04:31;;;;;;;18.90;16.30;;;;;;;13.85;53.95;99546.63;4140223;28;20319;-62
2022/03/17 00:06:32;;;;;;;20.43;15.63;;;;;;;13.31;55.25;99589.59;4138860;28;20351;-62
2022/03/17 00:08:34;;;;;;;21.77;15.93;;;;;;;12.76;56.70;99637.69;4148967;28;20744;-61
2022/03/17 00:10:35;;;;;;;21.37;16.70;;;;;;;13.44;55.12;99586.31;4151937;28;20304;-61
2022/03/17 00:12:37;;;;;;;19.87;16.97;;;;;;;13.17;55.79;99594.72;4144230;28;20260;-60
2022/03/17 00:14:39;;;;;;;21.27;18.27;;;;;;;12.71;56.42;99607.19;4143115;28;20320;-59
2022/03/17 00:16:41;;;;;;;21.77;17.50;;;;;;;12.91;56.24;99607.59;4144039;28;22840;-60
2022/03/17 00:18:42;;;;;;;20.30;17.13;;;;;;;12.80;56.81;99622.16;4144841;28;20233;-61
2022/03/17 00:20:47;;;;;;;26.80;17.43;;;;;;;13.00;56.09;99598.53;4143966;28;20265;-61
2022/03/17 00:22:50;;;;;;;22.53;18.27;;;;;;;12.67;57.09;99628.06;4143700;28;20237;-63
2022/03/17 00:24:51;;;;;;;24.23;18.50;;;;;;;12.65;56.75;99619.41;4144362;28;20335;-62
2022/03/17 00:26:53;;;;;;;22.43;18.67;;;;;;;12.79;56.70;99612.47;4142976;28;20260;-60
2022/03/17 00:28:55;;;;;;;24.20;19.70;;;;;;;12.43;57.35;99621.03;4144371;28;20245;-60
2022/03/17 00:30:56;;;;;;;22.13;18.53;;;;;;;12.11;58.11;99642.31;4144199;28;20272;-62
2022/03/17 00:32:58;;;;;;;27.13;20.67;;;;;;;11.91;58.72;99659.69;4143015;28;20245;-66
2022/03/17 00:37:20;;;;;;;24.70;20.23;;;;;;;12.03;58.94;99646.84;4144093;28;20639;-61
2022/03/17 00:39:21;;;;;;;24.17;19.57;;;;;;;12.03;58.60;99644.16;4143306;28;20707;-61
2022/03/17 00:41:23;;;;;;;24.17;20.30;;;;;;;11.76;59.29;99654.19;4143592;28;20260;-61
2022/03/17 00:43:25;;;;;;;26.40;20.03;;;;;;;11.75;59.20;99655.19;4149558;28;20252;-60
2022/03/17 00:45:26;;;;;;;24.93;20.53;;;;;;;11.98;58.57;99644.66;4150967;28;20236;-60
2022/03/17 00:47:28;;;;;;;24.93;19.00;;;;;;;11.99;58.76;99643.69;4150152;28;20321;-60
2022/03/17 00:49:30;;;;;;;24.20;20.40;;;;;;;12.08;58.23;99628.50;4143901;28;20247;-59
2022/03/17 00:51:31;;;;;;;23.80;20.30;;;;;;;12.04;58.46;99635.19;4143308;28;20268;-60
2022/03/17 00:53:33;;;;;;;24.33;19.67;;;;;;;11.95;58.68;99637.03;4143224;28;20237;-58
2022/03/17 00:55:35;;;;;;;24.60;20.03;;;;;;;11.92;59.02;99645.38;4143649;28;20336;-61
2022/03/17 00:57:37;;;;;;;24.07;20.17;;;;;;;11.73;59.30;99654.53;4143024;28;20265;-60
2022/03/17 00:59:40;;;;;;;26.00;20.57;;;;;;;11.65;59.35;99657.22;4143243;28;20315;-61
2022/03/17 01:01:41;;;;;;;25.40;20.73;;;;;;;11.90;58.99;99639.41;4142523;28;20229;-61
2022/03/17 01:03:45;;;;;;;24.67;20.37;;;;;;;12.05;58.62;99631.50;4143934;28;20316;-65
2022/03/17 01:05:46;;;;;;;28.10;19.90;;;;;;;12.09;58.31;99630.16;4141158;28;20316;-61
2022/03/17 01:07:50;;;;;;;24.90;20.37;;;;;;;12.02;58.62;99640.69;4143000;28;20284;-61
2022/03/17 01:09:52;;;;;;;26.67;21.17;;;;;;;11.88;59.10;99647.56;4143239;28;20598;-61
2022/03/17 01:11:54;;;;;;;26.07;21.10;;;;;;;11.87;58.91;99629.06;4142512;28;20261;-61
2022/03/17 01:13:56;;;;;;;27.17;21.63;;;;;;;11.88;59.07;99642.22;4142837;28;20328;-62
2022/03/17 01:15:58;;;;;;;26.03;20.87;;;;;;;11.49;59.77;99652.72;4142974;28;20336;-60
2022/03/17 01:17:59;;;;;;;25.00;21.27;;;;;;;11.69;59.39;99664.69;4142297;28;20328;-59
2022/03/17 01:20:02;;;;;;;28.57;23.03;;;;;;;11.79;59.26;99647.69;4143056;28;20264;-59
2022/03/17 01:22:04;;;;;;;25.63;21.20;;;;;;;11.90;58.95;99639.41;4133360;28;20318;-59
2022/03/17 01:24:06;;;;;;;27.17;22.27;;;;;;;12.13;58.52;99626.13;4145432;28;20229;-61
2022/03/17 01:26:07;;;;;;;29.80;21.10;;;;;;;12.23;58.00;99612.63;4155039;28;20280;-59
2022/03/17 01:28:09;;;;;;;32.47;23.27;;;;;;;12.00;58.67;99631.19;4142784;28;20572;-61
2022/03/17 01:30:14;;;;;;;26.97;22.67;;;;;;;12.15;58.25;99625.97;4142321;28;20327;-60
2022/03/17 01:32:17;;;;;;;32.70;22.80;;;;;;;12.44;57.59;99604.03;4143874;28;20272;-60
2022/03/17 01:34:19;;;;;;;30.60;23.27;;;;;;;12.31;57.98;99617.91;4142728;28;20320;-61
2022/03/17 01:36:20;;;;;;;34.43;23.97;;;;;;;12.33;57.73;99610.56;4142236;28;20653;-62
2022/03/17 01:38:22;;;;;;;28.20;23.60;;;;;;;12.29;58.05;99622.59;4142660;28;20269;-61
2022/03/17 01:40:24;;;;;;;28.80;23.87;;;;;;;12.28;58.08;99620.94;4142735;28;20331;-61
2022/03/17 01:42:25;;;;;;;30.67;25.33;;;;;;;12.28;58.36;99626.25;4141024;28;20601;-61
2022/03/17 01:44:27;;;;;;;30.40;24.83;;;;;;;12.27;58.16;99617.44;4145916;28;20701;-60
2022/03/17 01:46:29;;;;;;;31.83;26.47;;;;;;;12.00;58.64;99628.50;4155306;28;20424;-62
2022/03/17 01:48:31;;;;;;;32.63;25.37;;;;;;;12.08;58.23;99620.50;4141990;28;20279;-61
2022/03/17 01:50:33;;;;;;;33.00;26.00;;;;;;;12.44;57.98;99628.03;4142815;28;20833;-62
2022/03/17 01:52:35;;;;;;;33.33;26.87;;;;;;;12.48;57.74;99606.16;4142499;28;20360;-61
2022/03/17 01:54:37;;;;;;;31.23;25.50;;;;;;;12.58;57.41;99602.44;4141360;28;20755;-59
2022/03/17 01:56:39;;;;;;;34.10;27.07;;;;;;;12.22;58.03;99627.78;4142339;28;20308;-59
2022/03/17 01:58:41;;;;;;;37.13;27.60;;;;;;;12.33;57.91;99615.06;4142493;28;20639;-59
2022/03/17 02:00:45;;;;;;;33.00;27.20;;;;;;;12.38;57.79;99610.88;4142441;28;20237;-61
2022/03/17 02:02:50;;;;;;;34.10;26.97;;;;;;;11.98;58.60;99631.34;4143985;28;20232;-61
2022/03/17 02:04:52;;;;;;;34.37;27.50;;;;;;;12.48;57.75;99616.81;4146003;28;20722;-61
2022/03/17 02:06:55;;;;;;;35.47;28.47;;;;;;;12.70;57.38;99606.38;4145249;28;20325;-61
2022/03/17 02:08:56;;;;;;;34.90;27.27;;;;;;;12.58;57.40;99600.59;4142081;28;20328;-61
2022/03/17 02:13:18;;;;;;;37.90;28.37;;;;;;;12.30;57.93;99616.25;4135664;28;20730;-61
2022/03/17 02:15:20;;;;;;;39.73;28.70;;;;;;;12.21;58.02;99615.44;4142027;28;20276;-61
2022/03/17 02:17:22;;;;;;;36.53;28.30;;;;;;;12.18;58.23;99631.78;4142173;28;20320;-60
2022/03/17 02:19:24;;;;;;;35.93;27.43;;;;;;;12.40;57.64;99622.19;4141954;28;20764;-59
2022/03/17 02:21:26;;;;;;;36.93;27.80;;;;;;;12.47;57.66;99617.00;4141577;28;21047;-60
2022/03/17 02:25:50;;;;;;;34.97;28.73;;;;;;;12.39;57.42;99612.56;4141626;28;20324;-61
2022/03/17 02:27:52;;;;;;;36.33;29.23;;;;;;;12.32;58.13;99629.41;4141326;28;20316;-60
2022/03/17 02:29:54;;;;;;;35.90;29.47;;;;;;;12.30;58.07;99637.56;4142289;28;20323;-62
2022/03/17 02:31:56;;;;;;;38.97;29.50;;;;;;;12.23;58.29;99631.28;4141791;28;20305;-62
2022/03/17 02:33:57;;;;;;;37.43;30.03;;;;;;;12.17;58.11;99639.94;4139413;28;20239;-60
2022/03/17 02:35:59;;;;;;;40.07;29.77;;;;;;;12.02;58.76;99653.19;4145150;28;20315;-60
2022/03/17 02:38:04;;;;;;;36.03;28.73;;;;;;;11.81;59.54;99673.16;4144184;28;20316;-62
2022/03/17 02:40:09;;;;;;;34.80;29.37;;;;;;;11.80;59.48;99676.84;4144346;28;20311;-61
2022/03/17 02:42:11;;;;;;;37.80;29.83;;;;;;;11.89;59.19;99670.50;4142347;28;20371;-61
2022/03/17 02:44:13;;;;;;;36.67;30.30;;;;;;;11.80;59.45;99668.03;4149402;28;20270;-61
2022/03/17 02:46:15;;;;;;;37.40;29.73;;;;;;;12.01;58.79;99647.00;4140789;28;20323;-62
2022/03/17 02:48:17;;;;;;;36.00;29.97;;;;;;;12.21;58.39;99642.09;4146673;28;20735;-59
2022/03/17 02:50:19;;;;;;;34.50;29.30;;;;;;;12.00;58.73;99656.00;4147646;28;20781;-60
2022/03/17 02:52:22;;;;;;;37.13;29.37;;;;;;;12.19;58.51;99645.97;4140569;28;20667;-60
2022/03/17 02:54:24;;;;;;;37.00;30.47;;;;;;;12.38;58.02;99636.72;4141500;28;20287;-61
2022/03/17 02:56:26;;;;;;;36.57;31.10;;;;;;;12.42;57.82;99628.22;4141167;28;20316;-59
2022/03/17 02:58:31;;;;;;;37.27;29.80;;;;;;;12.20;58.37;99648.47;4141340;28;20256;-61
2022/03/17 03:00:34;;;;;;;35.23;29.00;;;;;;;12.47;57.89;99638.31;4141768;28;20253;-62
2022/03/17 03:02:37;;;;;;;34.33;28.83;;;;;;;12.13;58.43;99657.31;4141520;28;20729;-62
2022/03/17 03:04:38;;;;;;;38.03;30.87;;;;;;;12.22;58.09;99645.63;4141161;28;20237;-62
2022/03/17 03:06:40;;;;;;;36.73;29.90;;;;;;;12.40;57.88;99640.84;4141719;28;20706;-62
2022/03/17 03:08:42;;;;;;;36.93;30.67;;;;;;;12.67;57.05;99628.91;4141960;28;20605;-62
2022/03/17 03:10:44;;;;;;;37.50;29.80;;;;;;;12.59;57.08;99642.28;4141193;28;20248;-62
2022/03/17 03:12:46;;;;;;;37.07;31.03;;;;;;;12.43;57.74;99645.03;4141574;28;20687;-61
2022/03/17 03:14:48;;;;;;;36.47;28.87;;;;;;;12.47;57.57;99649.84;4140796;28;20603;-61
2022/03/17 03:16:50;;;;;;;36.17;29.97;;;;;;;12.50;57.56;99654.00;4140953;28;20253;-59
2022/03/17 03:18:52;;;;;;;35.03;29.30;;;;;;;12.60;57.25;99640.44;4141255;28;20251;-60
2022/03/17 03:20:54;;;;;;;37.63;31.00;;;;;;;12.77;57.07;99642.00;4142064;28;20654;-60
2022/03/17 03:22:57;;;;;;;36.90;29.33;;;;;;;12.70;57.03;99645.56;4140701;28;20265;-60
2022/03/17 03:24:58;;;;;;;36.10;30.67;;;;;;;12.90;56.58;99645.97;4141124;28;20280;-60
2022/03/17 03:27:00;;;;;;;34.20;29.87;;;;;;;12.46;57.53;99658.03;4141037;28;20387;-59
2022/03/17 03:29:05;;;;;;;36.13;29.83;;;;;;;12.29;57.81;99671.41;4141597;28;20273;-62
2022/03/17 03:31:08;;;;;;;36.53;29.90;;;;;;;12.27;58.07;99685.94;4140898;28;20763;-61
2022/03/17 03:33:10;;;;;;;34.23;28.77;;;;;;;12.47;57.70;99678.31;4140932;28;20271;-61
2022/03/17 03:37:36;;;;;;;35.23;31.43;;;;;;;13.10;56.24;99638.34;4144816;28;20332;-62
2022/03/17 03:39:38;;;;;;;39.53;31.67;;;;;;;12.95;56.41;99654.28;4141326;28;20264;-62
2022/03/17 03:41:40;;;;;;;38.13;30.90;;;;;;;12.73;56.97;99671.91;4141266;28;20308;-62
2022/03/17 03:43:41;;;;;;;37.90;31.47;;;;;;;12.85;56.56;99652.63;4148105;28;20304;-62
2022/03/17 03:45:43;;;;;;;38.53;33.03;;;;;;;12.67;56.99;99674.25;4152000;28;20343;-62
2022/03/17 03:47:45;;;;;;;39.23;33.93;;;;;;;11.61;59.84;99749.94;4148961;28;20268;-60
2022/03/17 03:49:46;;;;;;;42.60;34.00;;;;;;;11.46;60.18;99760.41;4144074;28;20737;-62
2022/03/17 03:51:48;;;;;;;35.00;29.10;;;;;;;10.49;63.24;99793.63;4144418;28;20226;-60
2022/03/17 03:56:10;;;;;;;37.13;27.23;;;;;;;12.67;57.96;99684.06;4143250;28;20336;-61
2022/03/17 03:58:12;;;;;;;30.10;25.43;;;;;;;12.22;58.89;99697.09;4144008;28;20276;-62
2022/03/17 04:02:19;;;;;;;30.40;26.03;;;;;;;11.63;61.12;99758.59;4140105;28;20263;-60
2022/03/17 04:04:22;;;;;;;31.57;26.83;;;;;;;11.16;62.50;99796.44;4155233;28;20340;-62
2022/03/17 04:06:23;;;;;;;31.87;27.73;;;;;;;11.46;61.73;99755.06;4144174;28;20272;-62
2022/03/17 04:08:25;;;;;;;32.13;26.57;;;;;;;11.19;62.16;99769.50;4143411;28;20324;-62
2022/03/17 04:10:27;;;;;;;33.23;28.53;;;;;;;11.72;60.75;99743.44;4144275;28;20668;-61
2022/03/17 04:12:29;;;;;;;34.87;29.80;;;;;;;12.22;59.09;99709.59;4144278;28;20260;-61
2022/03/17 04:14:31;;;;;;;35.40;29.10;;;;;;;11.79;60.07;99728.44;4140794;28;20376;-61
2022/03/17 04:16:34;;;;;;;34.30;28.10;;;;;;;10.98;62.59;99784.06;4146301;28;20379;-60
2022/03/17 04:18:35;;;;;;;31.80;27.00;;;;;;;11.10;63.18;99779.28;4155338;28;20610;-61
2022/03/17 04:20:37;;;;;;;33.93;29.67;;;;;;;10.97;62.83;99793.03;4143654;28;20744;-62
2022/03/17 04:22:39;;;;;;;35.47;30.53;;;;;;;10.90;63.00;99781.38;4143964;28;20263;-60
2022/03/17 04:24:40;;;;;;;35.10;29.63;;;;;;;10.30;63.86;99789.34;4143382;28;20260;-60
2022/03/17 04:26:42;;;;;;;34.60;29.00;;;;;;;10.96;63.48;99777.25;4143181;28;20268;-61
2022/03/17 04:28:44;;;;;;;35.83;30.00;;;;;;;11.07;63.00;99763.66;4143777;28;20885;-62
2022/03/17 04:30:46;;;;;;;33.27;27.30;;;;;;;9.46;67.94;99848.00;4143897;28;20291;-62
2022/03/17 04:32:48;;;;;;;29.83;25.50;;;;;;;11.48;62.33;99726.44;4142609;28;20236;-61
2022/03/17 04:34:49;;;;;;;31.90;26.23;;;;;;;11.71;61.64;99715.13;4143998;28;20516;-61
2022/03/17 04:36:51;;;;;;;34.17;28.20;;;;;;;11.97;60.59;99703.50;4143738;28;20323;-61
2022/03/17 04:38:52;;;;;;;35.83;28.97;;;;;;;11.02;63.68;99770.44;4143520;28;20320;-61
2022/03/17 04:40:54;;;;;;;34.93;27.43;;;;;;;11.92;60.74;99706.66;4158400;28;20268;-59
2022/03/17 04:42:56;;;;;;;35.80;28.93;;;;;;;10.58;63.97;99806.81;4148383;28;20661;-62
2022/03/17 04:44:57;;;;;;;36.60;29.00;;;;;;;11.64;61.31;99724.78;4147151;28;20328;-62
2022/03/17 04:46:59;;;;;;;34.73;29.33;;;;;;;11.74;61.10;99728.09;4144872;28;20232;-62
2022/03/17 04:49:01;;;;;;;31.77;27.63;;;;;;;11.36;61.62;99754.41;4150056;28;20746;-61
2022/03/17 04:51:05;;;;;;;35.53;29.63;;;;;;;12.18;59.58;99690.44;4159916;28;20295;-61
2022/03/17 04:55:28;;;;;;;36.33;29.30;;;;;;;11.42;61.55;99743.06;4147028;28;20271;-59
2022/03/17 04:57:29;;;;;;;34.13;28.80;;;;;;;11.00;63.46;99781.22;4149504;28;20518;-61
2022/03/17 05:02:35;;;;;;;34.20;27.83;;;;;;;10.23;65.33;99743.97;4212655;27;20658;-58
2022/03/17 05:04:36;;;;;;;33.77;27.70;;;;;;;9.35;68.37;99826.16;4187273;28;20410;-61
2022/03/17 05:06:38;;;;;;;33.03;27.87;;;;;;;9.20;68.29;99836.44;4193364;28;20315;-59
2022/03/17 05:08:40;;;;;;;36.93;28.20;;;;;;;9.80;67.43;99786.31;4202212;28;20237;-61
2022/03/17 05:10:43;;;;;;;36.67;27.60;;;;;;;10.22;65.76;99767.03;4204617;28;20254;-59
2022/03/17 05:12:46;;;;;;;33.80;28.13;;;;;;;10.03;66.30;99775.22;4205256;28;20265;-61
2022/03/17 05:14:48;;;;;;;33.03;28.87;;;;;;;11.02;62.83;99722.53;4205503;28;20231;-60
2022/03/17 05:16:49;;;;;;;35.20;27.93;;;;;;;11.35;61.55;99702.97;4204992;28;20266;-59
2022/03/17 05:18:51;;;;;;;36.53;28.60;;;;;;;11.44;61.22;99710.97;4205163;28;20238;-58
2022/03/17 05:20:53;;;;;;;35.83;29.07;;;;;;;11.49;60.89;99712.16;4203406;28;20311;-60
2022/03/17 05:22:55;;;;;;;34.90;29.03;;;;;;;11.51;60.72;99717.28;4203081;28;20364;-63
2022/03/17 05:24:56;;;;;;;35.20;29.77;;;;;;;11.58;60.39;99712.13;4204323;28;20333;-61
2022/03/17 05:26:58;;;;;;;36.23;29.10;;;;;;;11.72;60.01;99714.97;4205271;28;20266;-59
2022/03/17 05:28:59;;;;;;;37.83;29.37;;;;;;;11.37;60.37;99734.75;4205597;28;20324;-60
2022/03/17 05:31:02;;;;;;;35.30;28.53;;;;;;;11.27;61.68;99777.47;4205120;28;20234;-59
2022/03/17 05:33:05;;;;;;;37.27;30.63;;;;;;;11.13;61.16;99762.97;4204617;28;20356;-60
2022/03/17 05:35:07;;;;;;;34.10;29.27;;;;;;;11.50;60.63;99750.25;4204966;28;20266;-61
2022/03/17 05:37:09;;;;;;;40.00;30.53;;;;;;;11.57;60.44;99742.44;4204110;28;20544;-58
2022/03/17 05:39:11;;;;;;;37.53;30.80;;;;;;;11.43;60.97;99771.38;4205142;28;20231;-60
2022/03/17 05:41:13;;;;;;;38.63;30.47;;;;;;;11.61;60.23;99757.94;4205040;28;20259;-61
2022/03/17 05:43:15;;;;;;;39.80;31.17;;;;;;;12.00;59.30;99743.09;4197506;28;20227;-59
2022/03/17 05:45:16;;;;;;;40.47;33.23;;;;;;;11.70;60.01;99750.75;4204886;28;20231;-60
2022/03/17 05:47:18;;;;;;;36.97;30.87;;;;;;;10.99;61.67;99785.72;4204586;28;20234;-60
2022/03/17 05:49:20;;;;;;;37.43;31.03;;;;;;;10.30;64.47;99861.09;4204331;28;20751;-61
2022/03/17 05:51:22;;;;;;;40.37;31.57;;;;;;;10.63;63.14;99841.72;4203395;28;20252;-61
2022/03/17 05:53:23;;;;;;;38.43;31.17;;;;;;;9.97;65.42;99861.66;4204244;28;20322;-62
2022/03/17 05:55:26;;;;;;;36.10;30.97;;;;;;;10.03;66.37;99871.69;4204527;28;20270;-60
2022/03/17 05:57:27;;;;;;;41.70;31.27;;;;;;;10.59;63.74;99831.56;4204773;28;20257;-62
2022/03/17 05:59:29;;;;;;;40.10;32.77;;;;;;;10.91;62.64;99801.66;4204955;28;20254;-61
2022/03/17 06:01:31;;;;;;;43.37;33.47;;;;;;;9.58;67.33;99915.00;4203870;28;20738;-61
2022/03/17 06:03:34;;;;;;;41.13;34.80;;;;;;;9.74;67.34;99894.94;4200126;28;20707;-58
2022/03/17 06:05:35;;;;;;;42.80;33.97;;;;;;;10.74;63.94;99829.97;4200823;28;20693;-60
2022/03/17 06:07:45;;;;;;;43.97;33.63;;;;;;;10.42;64.82;99843.91;4203851;28;20722;-60
2022/03/17 06:09:46;;;;;;;39.90;32.33;;;;;;;11.05;62.80;99802.88;4201953;28;20230;-57
2022/03/17 06:11:48;;;;;;;43.13;34.77;;;;;;;10.31;65.25;99870.72;4202415;28;20258;-60
2022/03/17 06:13:50;;;;;;;42.13;34.10;;;;;;;10.38;65.48;99869.13;4191939;28;20295;-58
2022/03/17 06:15:51;;;;;;;48.47;35.57;;;;;;;9.67;67.08;99926.56;4192895;28;20901;-60
2022/03/17 06:17:55;;;;;;;45.60;35.23;;;;;;;10.04;66.59;99894.59;4192904;28;20326;-61
2022/03/17 06:19:57;;;;;;;53.27;37.43;;;;;;;8.07;71.34;99950.22;4192912;28;20253;-61
2022/03/17 06:21:59;;;;;;;43.67;33.70;;;;;;;8.16;72.54;99983.81;4192898;28;20678;-61
2022/03/17 06:24:00;;;;;;;42.67;32.60;;;;;;;8.93;70.59;99928.28;4192785;28;20270;-62
2022/03/17 06:26:02;;;;;;;40.90;31.87;;;;;;;9.71;66.97;99895.28;4192962;28;20475;-60
2022/03/17 06:28:04;;;;;;;39.27;30.97;;;;;;;8.83;70.75;99965.41;4190282;28;20242;-60
2022/03/17 06:30:08;;;;;;;37.07;28.87;;;;;;;9.65;68.31;99910.78;4192643;28;20329;-61
2022/03/17 06:32:10;;;;;;;38.27;30.73;;;;;;;10.37;65.56;99870.13;4192962;28;20257;-61
2022/03/17 06:34:12;;;;;;;44.03;32.97;;;;;;;10.21;66.34;99898.25;4191731;28;20266;-60
2022/03/17 06:36:14;;;;;;;42.13;32.70;;;;;;;10.91;63.59;99849.53;4186095;28;20802;-60
2022/03/17 06:38:15;;;;;;;42.03;32.83;;;;;;;10.70;64.62;99870.34;4190790;28;20675;-63
2022/03/17 06:40:17;;;;;;;43.67;35.17;;;;;;;10.78;64.48;99878.41;4191415;28;20254;-59
2022/03/17 06:42:20;;;;;;;48.07;38.73;;;;;;;9.12;68.56;99973.28;4192150;28;20335;-61
2022/03/17 06:44:22;;;;;;;48.00;36.47;;;;;;;10.80;64.41;99874.59;4192133;28;20680;-60
2022/03/17 06:46:24;;;;;;;77.23;54.90;;;;;;;10.92;63.91;99867.19;4191485;28;20231;-59
2022/03/17 06:48:26;;;;;;;64.70;46.90;;;;;;;11.64;61.18;99826.81;4192718;28;20310;-62
2022/03/17 06:50:28;;;;;;;50.97;39.67;;;;;;;11.92;60.16;99815.91;4192374;28;20265;-62
2022/03/17 06:52:29;;;;;;;47.63;37.87;;;;;;;10.89;62.89;99886.13;4189617;28;20274;-60
2022/03/17 06:54:31;;;;;;;48.33;35.37;;;;;;;10.84;63.93;99908.88;4191955;28;20314;-61
2022/03/17 06:56:33;;;;;;;42.50;36.33;;;;;;;10.59;64.61;99930.75;4192293;28;20250;-60
2022/03/17 06:58:34;;;;;;;48.33;37.17;;;;;;;10.60;64.92;99913.84;4191931;28;20261;-59
2022/03/17 07:00:36;;;;;;;43.67;35.63;;;;;;;10.75;64.37;99913.25;4192505;28;20770;-62
2022/03/17 07:02:38;;;;;;;42.73;34.07;;;;;;;10.75;64.60;99907.94;4192334;28;20652;-60
2022/03/17 07:04:41;;;;;;;42.23;35.10;;;;;;;9.91;66.73;99963.22;4190991;28;20235;-62
2022/03/17 07:06:42;;;;;;;43.10;34.20;;;;;;;10.56;65.11;99916.94;4192328;28;20269;-61
2022/03/17 07:08:44;;;;;;;41.00;34.27;;;;;;;10.75;64.96;99918.56;4192501;28;20325;-59
2022/03/17 07:10:46;;;;;;;42.40;34.70;;;;;;;11.34;62.86;99887.66;4189700;28;20663;-60
2022/03/17 07:12:48;;;;;;;44.00;34.20;;;;;;;11.14;62.87;99879.09;4190930;28;20296;-60
2022/03/17 07:14:49;;;;;;;42.37;35.27;;;;;;;11.02;63.77;99914.13;4191777;28;20525;-62
2022/03/17 07:16:51;;;;;;;40.47;33.57;;;;;;;10.17;67.02;99979.25;4191927;28;20326;-61
2022/03/17 07:18:53;;;;;;;42.00;34.07;;;;;;;10.76;64.55;99920.28;4192015;28;20708;-60
2022/03/17 07:20:57;;;;;;;39.83;33.07;;;;;;;11.01;63.59;99904.47;4192243;28;20687;-62
2022/03/17 07:22:59;;;;;;;40.50;33.47;;;;;;;10.34;65.43;99944.84;4191696;28;20281;-60
2022/03/17 07:25:02;;;;;;;37.80;33.10;;;;;;;11.10;63.44;99901.69;4190506;28;20318;-59
2022/03/17 07:27:04;;;;;;;39.30;32.73;;;;;;;11.91;60.77;99867.50;4189098;28;20261;-60
2022/03/17 07:29:05;;;;;;;38.93;34.00;;;;;;;11.99;60.47;99862.19;4191363;28;20271;-57
2022/03/17 07:31:07;;;;;;;40.53;33.80;;;;;;;12.15;60.02;99853.38;4191370;28;20250;-57
2022/03/17 07:33:10;;;;;;;38.03;32.83;;;;;;;11.92;60.68;99867.34;4191713;28;20239;-57
2022/03/17 07:35:12;;;;;;;38.00;33.03;;;;;;;12.29;59.74;99867.88;4191376;28;20270;-58
2022/03/17 07:37:14;;;;;;;41.50;33.73;;;;;;;12.14;59.97;99864.22;4190957;28;20646;-59
2022/03/17 07:39:15;;;;;;;37.27;32.80;;;;;;;12.38;59.13;99864.19;4190707;28;20713;-59
2022/03/17 07:41:17;;;;;;;39.03;32.53;;;;;;;12.40;58.76;99864.03;4191740;28;20330;-59
2022/03/17 07:43:19;;;;;;;37.77;31.77;;;;;;;12.67;57.94;99847.66;4190269;28;20281;-61
2022/03/17 07:45:20;;;;;;;38.30;32.23;;;;;;;12.54;57.99;99862.50;4191494;28;20319;-60
2022/03/17 07:47:22;;;;;;;39.13;32.90;;;;;;;12.35;58.44;99869.84;4191489;28;20314;-60
2022/03/17 07:49:24;;;;;;;37.27;32.07;;;;;;;12.42;58.46;99888.69;4191006;28;20311;-61
2022/03/17 07:51:25;;;;;;;40.77;33.83;;;;;;;12.30;59.03;99896.19;4191779;28;20687;-60
2022/03/17 07:53:27;;;;;;;38.20;32.47;;;;;;;12.28;58.75;99890.19;4191618;28;20250;-58
2022/03/17 07:55:29;;;;;;;38.37;32.77;;;;;;;12.36;58.50;99890.19;4191143;28;20262;-61
2022/03/17 07:57:31;;;;;;;35.77;31.13;;;;;;;12.38;58.59;99890.84;4191741;28;20507;-61
2022/03/17 07:59:33;;;;;;;39.33;33.07;;;;;;;12.23;58.86;99900.53;4191735;28;20706;-58
2022/03/17 08:01:35;;;;;;;38.67;32.07;;;;;;;12.09;59.24;99915.34;4190204;28;20349;-59
2022/03/17 08:03:39;;;;;;;36.83;32.67;;;;;;;12.19;59.09;99916.03;4191383;28;20266;-60
2022/03/17 08:05:41;;;;;;;38.77;33.17;;;;;;;11.96;59.74;99923.81;4191056;28;20246;-62
2022/03/17 08:07:43;;;;;;;37.00;30.80;;;;;;;12.23;58.88;99929.84;4190645;28;20263;-61
2022/03/17 08:09:45;;;;;;;36.97;31.60;;;;;;;12.09;59.25;99929.50;4191509;28;20284;-60
2022/03/17 08:11:48;;;;;;;35.60;31.07;;;;;;;12.49;57.33;99911.03;4191269;28;20237;-60
2022/03/17 08:13:50;;;;;;;37.60;32.33;;;;;;;12.58;56.78;99899.34;4191008;28;20259;-60
2022/03/17 08:15:52;;;;;;;37.50;32.30;;;;;;;12.76;56.62;99909.84;4190880;28;20278;-62
2022/03/17 08:17:54;;;;;;;37.87;31.97;;;;;;;12.55;57.05;99906.84;4191155;28;20334;-59
2022/03/17 08:19:56;;;;;;;36.20;31.97;;;;;;;12.53;57.61;99920.34;4191099;28;20255;-58
2022/03/17 08:21:58;;;;;;;38.37;30.73;;;;;;;12.51;57.36;99911.69;4190412;28;20326;-58
2022/03/17 08:24:06;;;;;;;35.80;31.57;;;;;;;11.86;58.81;99955.91;4191018;28;20223;-55
2022/03/17 08:26:08;;;;;;;40.60;32.63;;;;;;;11.85;59.15;99962.28;4189125;28;20239;-59
2022/03/17 08:28:10;;;;;;;35.63;30.80;;;;;;;11.59;60.15;99975.63;4189751;28;20258;-60
2022/03/17 08:30:12;;;;;;;39.50;31.33;;;;;;;11.96;59.31;99974.44;4191002;28;21052;-60
2022/03/17 08:32:14;;;;;;;35.33;31.10;;;;;;;12.42;57.66;99932.19;4190836;28;20266;-59
2022/03/17 08:34:16;;;;;;;37.37;32.10;;;;;;;12.50;57.38;99931.34;4187376;28;20387;-59
2022/03/17 08:36:17;;;;;;;36.50;32.13;;;;;;;12.46;57.49;99936.19;4189903;28;20291;-61
2022/03/17 08:38:20;;;;;;;39.47;31.27;;;;;;;12.13;58.70;99964.66;4188959;28;20263;-61
2022/03/17 08:40:22;;;;;;;37.03;32.57;;;;;;;12.54;57.11;99945.19;4189750;28;20935;-62
2022/03/17 08:42:24;;;;;;;38.30;32.40;;;;;;;12.90;56.11;99931.53;4190508;28;20431;-62
2022/03/17 08:44:25;;;;;;;41.23;31.73;;;;;;;12.75;56.66;99929.50;4190429;28;20253;-61
2022/03/17 08:51:13;;;;;;;36.87;30.53;;;;;;;10.99;62.16;100053.63;4191268;28;20814;-62
2022/03/17 08:53:15;;;;;;;34.97;30.37;;;;;;;11.20;60.70;100031.97;4189662;28;20331;-60
2022/03/17 08:55:17;;;;;;;35.57;31.43;;;;;;;11.36;61.22;100032.09;4190440;28;20274;-61
2022/03/17 08:57:18;;;;;;;36.33;30.50;;;;;;;11.03;61.95;100041.69;4192332;28;20295;-61
2022/03/17 08:59:20;;;;;;;35.57;28.67;;;;;;;11.69;60.65;100013.59;4191969;28;20271;-62
2022/03/17 09:01:21;;;;;;;36.23;29.43;;;;;;;12.02;59.71;99997.78;4190780;28;20854;-62
2022/03/17 09:03:25;;;;;;;36.00;30.87;;;;;;;11.91;59.84;100016.72;4190440;28;20239;-62
2022/03/17 09:05:27;;;;;;;35.30;30.00;;;;;;;12.70;57.10;99961.19;4189673;28;20245;-62
2022/03/17 09:07:30;;;;;;;36.37;31.07;;;;;;;12.82;57.03;99959.84;4188975;28;20738;-61
2022/03/17 09:09:35;;;;;;;34.37;30.37;;;;;;;12.84;56.70;99957.84;4190089;28;20682;-59
2022/03/17 09:11:37;;;;;;;35.23;29.43;;;;;;;12.90;56.69;99976.91;4189505;28;20231;-59
2022/03/17 09:13:42;;;;;;;38.50;30.67;;;;;;;12.75;57.07;99974.84;4190625;28;20253;-60
2022/03/17 09:15:44;;;;;;;34.10;29.57;;;;;;;12.92;56.62;99978.38;4190602;28;20239;-60
2022/03/17 09:17:46;;;;;;;35.03;30.60;;;;;;;13.18;56.20;99975.50;4189493;28;20266;-61
2022/03/17 09:19:47;;;;;;;35.90;30.80;;;;;;;13.13;56.11;99971.66;4190998;28;20505;-58
2022/03/17 09:21:49;;;;;;;35.77;31.47;;;;;;;12.98;56.66;99977.72;4190473;28;20738;-62
2022/03/17 09:23:51;;;;;;;37.53;31.67;;;;;;;12.98;56.77;99969.69;4189762;28;20353;-62
2022/03/17 09:25:53;;;;;;;34.17;30.27;;;;;;;13.20;56.39;99978.84;4190524;28;20241;-62
2022/03/17 09:27:55;;;;;;;37.20;31.90;;;;;;;12.79;57.13;99984.22;4190853;28;20234;-62
2022/03/17 09:29:58;;;;;;;37.50;31.47;;;;;;;12.60;57.18;99990.69;4183357;28;20339;-62
2022/03/17 09:32:00;;;;;;;34.90;30.93;;;;;;;12.93;56.78;99985.41;4190385;28;20255;-62
2022/03/17 09:34:03;;;;;;;36.87;30.77;;;;;;;12.79;56.86;99984.22;4190367;28;20922;-62
2022/03/17 09:36:05;;;;;;;35.23;30.77;;;;;;;12.88;56.92;99989.59;4189857;28;20270;-62
2022/03/17 09:38:08;;;;;;;35.17;30.77;;;;;;;12.81;57.52;100003.56;4189903;28;20651;-59
2022/03/17 09:40:10;;;;;;;34.43;29.13;;;;;;;13.08;56.92;99988.22;4190364;28;20678;-61
2022/03/17 09:42:14;;;;;;;34.17;29.93;;;;;;;12.77;57.68;100004.03;4189677;28;20266;-62
2022/03/17 09:44:16;;;;;;;35.03;30.27;;;;;;;13.10;56.68;99988.03;4189312;28;20301;-60